Aviation Digital Data Service (ADDS)

Output produced by METARs form (1051 UTC 16 January 2017)
found at http://aviationweather.gov/adds/metars/
 
KISP 160834Z 1609/1706 VRB03KT P6SM SKC 
     FM161400 27006KT P6SM SKC 
     FM161600 23008KT P6SM FEW250 
     FM162300 24005KT P6SM BKN100